Terminal Aerodrome Forecast
Issued by NWS Tuscon, AZ

Home | Current Version | Previous Version | Text Only | Print | Product List | Glossary On
Versions: 1 2 3 4 5 6 7 8 9 10 11 12 13 14
000
FTUS45 KTWC 031120
TAFTUS
TAF
KTUS 031120Z 0312/0412 14009KT P6SM SKC
     FM031800 18010KT P6SM SCT100
     FM032100 23011G18KT P6SM SCT100 SCT140
     FM040300 22007KT P6SM SCT100
     FM040700 16005KT P6SM SCT080 BKN100=

USA.gov is the U.S. government's official web portal to all federal, state and local government web resources and services.